• Join FlightAware (Why Join?)
  • Login
  • US Flag 
 
05:08PM EST


 

Airport Tracker/Info


-or-


 

Live Flight TrackerFlight Track Log ✈ N319EE ✈ 10-Jun-2014 ✈ KAUG - KBGM

Flight Track Log - Related Links

Times and Time Zones

All times are in EDT time to prevent confusion due to time zone crossing. See the N319EE flight status page for this flight to view local times or setup timezone preferences in your user account.

Time Position Orientation Groundspeed Altitude Reporting Facility
EDT Latitude Longitude Course Direction KTS MPH feet Rate Location/Type
06:22PM 44.2869 -69.9672 245° Southwest 179 206 6,500  Level Boston Center
06:23PM 44.2633 -70.0317 243° Southwest 176 203 8,700 2,160 Climbing Boston Center
06:24PM 44.2406 -70.0908 242° Southwest 176 203 11,000 2,100 Climbing Boston Center
06:25PM 44.2192 -70.1508 244° Southwest 175 201 13,000 1,920 Climbing Boston Center
06:26PM 44.1944 -70.2164 242° Southwest 175 201 14,900 1,680 Climbing Boston Center
06:27PM 44.1708 -70.2764 241° Southwest 177 204 16,500 1,320 Climbing Boston Center
06:28PM 44.1483 -70.3378 243° Southwest 177 204 17,700 1,140 Climbing Boston Center
06:29PM 44.1231 -70.4053 242° Southwest 183 211 18,900 1,080 Climbing Boston Center
06:30PM 44.1000 -70.4656 242° Southwest 183 211 20,000 540 Climbing Boston Center
06:31PM 44.0722 -70.5375 242° Southwest 204 235 20,000  Level Boston Center
06:33PM 44.0422 -70.6183 243° Southwest 228 262 20,000  Level Boston Center
06:34PM 44.0108 -70.6989 242° Southwest 231 266 20,000  Level Boston Center
06:35PM 43.9786 -70.7806 241° Southwest 236 272 20,000  Level Boston Center
06:36PM 43.9469 -70.8611 241° Southwest 236 272 20,000  Level Boston Center
06:37PM 43.9156 -70.9436 242° Southwest 237 273 20,000  Level Boston Center
06:38PM 43.8769 -71.0425 242° Southwest 239 275 20,000  Level Boston Center
06:39PM 43.8450 -71.1242 242° Southwest 240 276 20,000  Level Boston Center
06:40PM 43.8114 -71.2083 241° Southwest 242 278 20,000  Level Boston Center
06:41PM 43.7789 -71.2919 242° Southwest 244 281 20,000  Level Boston Center
06:42PM 43.7469 -71.3761 242° Southwest 244 281 20,000  Level Boston Center
06:43PM 43.7128 -71.4594 240° Southwest 244 281 20,000  Level Boston Center
06:44PM 43.6814 -71.5408 242° Southwest 245 282 20,000  Level Boston Center
06:45PM 43.6469 -71.6239 240° Southwest 249 287 20,000  Level Boston Center
06:46PM 43.6133 -71.7069 241° Southwest 248 285 20,000  Level Boston Center
06:47PM 43.5728 -71.8056 240° Southwest 248 285 20,000  Level Boston Center
06:48PM 43.5406 -71.8900 242° Southwest 249 287 20,000  Level Boston Center
06:49PM 43.5081 -71.9747 242° Southwest 249 287 20,000  Level Boston Center
06:50PM 43.4733 -72.0567 240° Southwest 249 287 20,000  Level Boston Center
06:51PM 43.4408 -72.1414 242° Southwest 249 287 20,000  Level Boston Center
06:52PM 43.4058 -72.2244 240° Southwest 249 287 20,000  Level Boston Center
06:53PM 43.3714 -72.3094 241° Southwest 251 289 20,000  Level Boston Center
06:54PM 43.3314 -72.4106 241° Southwest 252 290 20,000  Level Boston Center
06:55PM 43.2972 -72.4936 241° Southwest 251 289 20,000  Level Boston Center
06:56PM 43.2631 -72.5761 240° Southwest 251 289 20,000  Level Boston Center
06:57PM 43.2286 -72.6597 241° Southwest 251 289 20,000  Level Boston Center
06:58PM 43.1936 -72.7439 240° Southwest 252 290 20,000  Level Boston Center
06:59PM 43.1586 -72.8283 240° Southwest 253 291 20,000  Level Boston Center
07:00PM 43.1197 -72.9225 241° Southwest 253 291 20,000  Level Boston Center
07:01PM 43.0850 -73.0061 240° Southwest 254 292 20,000  Level Boston Center
07:02PM 43.0500 -73.0986 243° Southwest 254 292 20,000  Level Boston Center
07:03PM 43.0253 -73.1883 249° West 254 292 20,000  Level Boston Center
07:04PM 43.0006 -73.2794 250° West 254 292 20,000  Level Boston Center
07:05PM 42.9750 -73.3731 250° West 256 295 20,000  Level Boston Center
07:06PM 42.9500 -73.4631 249° West 256 295 20,000  Level Boston Center
07:07PM 42.9244 -73.5531 249° West 255 293 20,000  Level Boston Center
07:08PM 42.8983 -73.6436 249° West 255 293 20,000  Level Boston Center
07:09PM 42.8728 -73.7339 249° West 255 293 20,000  Level Boston Center
07:10PM 42.8436 -73.8386 249° West 256 295 20,000  Level Boston Center
07:12PM 42.8178 -73.9286 249° West 256 295 20,000 -300 Level Boston Center
07:13PM 42.7919 -74.0197 249° West 256 295 19,500 -780 Descending Boston Center
07:14PM 42.7589 -74.1358 249° West 282 325 18,500 -960 Descending Boston Center
07:15PM 42.7294 -74.2378 249° West 287 330 17,600 -960 Descending Boston Center
07:16PM 42.6992 -74.3389 248° West 289 333 16,600 -840 Descending Boston Center
07:17PM 42.6633 -74.4483 246° West 293 337 16,000 -300 Descending Boston Center
07:18PM 42.6333 -74.5436 247° West 280 322 16,000  Level Boston Center
07:19PM 42.6033 -74.6381 247° West 277 319 16,000  Level Boston Center
07:20PM 42.5714 -74.7381 247° West 272 313 16,000  Level Boston Center
07:21PM 42.5431 -74.8314 248° West 272 313 16,000  Level Boston Center
07:22PM 42.5128 -74.9256 246° West 272 313 16,000 -60 Level Boston Center
07:23PM 42.4819 -75.0211 246° West 272 313 15,900 -780 Descending Boston Center
07:24PM 42.4506 -75.1200 247° West 282 325 14,500 -1,380 Descending Boston Center
07:25PM 42.4197 -75.2194 247° West 284 327 13,100 -1,380 Descending Boston Center
07:26PM 42.3892 -75.3158 247° West 284 327 11,700 -1,560 Descending Boston Center
07:27PM 42.3575 -75.4108 246° West 282 325 10,000 -1,680 Descending Boston Center
07:28PM 42.3261 -75.5086 247° West 282 325 8,400 -1,680 Descending Boston Center
07:29PM 42.2906 -75.6142 246° West 273 314 6,600 -1,680 Descending Boston Center
07:30PM 42.2606 -75.7125 248° West 276 318 4,900 -1,680 Descending Boston Center
07:31PM 42.2339 -75.8081 249° West 277 319 3,300 -1,020 Descending Boston Center
07:32PM 42.2108 -75.8781 246° West 218 251 2,900 -600 Descending Boston Center
07:33PM 42.2067 -75.9444 265° West 186 214 2,100 -840 Descending Boston Center
07:35PM 42.2000 -75.9667 270° West  Level FlightAware Approximate
07:42PM 42.2084 -75.9796 270° West  Level Estimated
07:43PM 42.2084 -75.9796 270° West  Level Estimated